Yankee — WDF4108 — position and weather

sailwx.info

Track history (hours):
 
Tides and Currents Weather Stations Pressure Air Temp Water Temp Dewpoint Dewpoint Depression Visibility Wind Speed Wind Dir Waves Ship Positions

Yankee

Owner: United New York & New Jersey Sandy Hook Pilots Association, Staten Island, NY. More information available from US FCC via Universal Licensing System and Coast Guard Vessel Documentation Center.

Last reported at 2018-Jul-10 14:32 UTC. Time now 2018-Jul-23 07:31 UTC.
Position N 40°37' W 074°03'.
Warning: this ship's position is 12 days out of date.

Length 17 m; draft 2.6 m.

Type: Pilot. MMSI: 367448070.

Date/timePositionNaut miles runAvg speedWind from/ knotsBaromVisibWave heightAir tempDewpointWater temp
2018-Jul-10 14:32N 40°37' W 074°03'0 9.9
2018-Jul-10 14:30N 40°37' W 074°04'0 0.0
2018-Jul-09 20:45N 40°37' W 074°03'3 1.8
2018-Jul-09 19:18N 40°34' W 074°02'310.5
2018-Jul-09 19:00N 40°37' W 074°04'0 0.0
2018-Jul-08 04:05N 40°37' W 074°04'0 1.4
2018-Jul-08 03:57N 40°37' W 074°04'4 2.9
2018-Jul-08 02:32N 40°34' W 074°01'4 0.4
2018-Jul-07 14:19N 40°37' W 074°04'722.6
2018-Jul-07 14:01N 40°44' W 074°01'0 0.9
2018-Jul-07 13:30N 40°45' W 074°01'8 3.3
2018-Jul-07 11:03N 40°37' W 074°04'117.2
2018-Jul-07 11:01N 40°36' W 074°03'3 2.4
2018-Jul-07 09:49N 40°34' W 074°01'3 0.5
2018-Jul-07 03:09N 40°37' W 074°03'3 3.1
2018-Jul-07 02:05N 40°34' W 074°01'224.0
2018-Jul-07 02:00N 40°35' W 074°02'1 0.2
2018-Jul-06 22:28N 40°35' W 074°02'1 0.1
2018-Jul-06 09:49N 40°36' W 074°03'0 0.0
2018-Jul-06 02:21N 40°36' W 074°03'1 0.1
2018-Jul-05 21:22N 40°36' W 074°02'1 2.0
2018-Jul-05 20:43N 40°37' W 074°03'1 0.9
2018-Jul-05 19:46N 40°36' W 074°03'1 0.0
2018-Jul-05 05:35N 40°36' W 074°03'422.9
2018-Jul-05 05:25N 40°33' W 074°00'1 0.8
2018-Jul-05 04:17N 40°34' W 074°01'4 0.6
2018-Jul-04 22:17N 40°37' W 074°04'3 3.4
2018-Jul-04 21:22N 40°34' W 074°02'3 1.1
2018-Jul-04 19:02N 40°37' W 074°03'1 0.9
2018-Jul-04 17:58N 40°36' W 074°03'1 0.4
2018-Jul-04 15:32N 40°37' W 074°03'2 2.1
2018-Jul-04 14:24N 40°35' W 074°02'2 0.7
2018-Jul-04 11:14N 40°37' W 074°03'520.4
2018-Jul-04 11:00N 40°33' W 073°60'811.6
2018-Jul-04 10:18N 40°28' W 073°51'621.0
2018-Jul-04 10:00N 40°32' W 073°58'6 0.9
2018-Jul-04 03:03N 40°36' W 074°03'1 1.0
2018-Jul-04 01:52N 40°35' W 074°02'2 1.8
2018-Jul-04 00:46N 40°37' W 074°04'3 1.4
2018-Jul-03 22:30N 40°34' W 074°02'3 2.9
2018-Jul-03 21:36N 40°37' W 074°03'2 1.0
2018-Jul-03 20:07N 40°35' W 074°02'2 0.2
2018-Jul-03 09:40N 40°33' W 074°01'423.5
2018-Jul-03 09:30N 40°36' W 074°03'0 0.0
2018-Jul-02 20:05N 40°36' W 074°03'3 3.6
2018-Jul-02 19:14N 40°34' W 074°01'  
Track history (hours):
 
Tides and Currents Weather Stations Pressure Air Temp Water Temp Dewpoint Dewpoint Depression Visibility Wind Speed Wind Dir Waves Ship Positions

Yankee

Owner: United New York & New Jersey Sandy Hook Pilots Association, Staten Island, NY. More information available from US FCC via Universal Licensing System and Coast Guard Vessel Documentation Center.

Last reported at 2018-Jul-10 14:32 UTC. Time now 2018-Jul-23 07:31 UTC.
Position N 40°37' W 074°03'.
Warning: this ship's position is 12 days out of date.

Length 17 m; draft 2.6 m.

Type: Pilot. MMSI: 367448070.

Date/timePositionNaut miles runAvg speedWind from/ knotsBaromVisibWave heightAir tempDewpointWater temp
2018-Jul-10 14:32N 40°37' W 074°03'0 9.9
2018-Jul-10 14:30N 40°37' W 074°04'0 0.0
2018-Jul-09 20:45N 40°37' W 074°03'3 1.8
2018-Jul-09 19:18N 40°34' W 074°02'310.5
2018-Jul-09 19:00N 40°37' W 074°04'0 0.0
2018-Jul-08 04:05N 40°37' W 074°04'0 1.4
2018-Jul-08 03:57N 40°37' W 074°04'4 2.9
2018-Jul-08 02:32N 40°34' W 074°01'4 0.4
2018-Jul-07 14:19N 40°37' W 074°04'722.6
2018-Jul-07 14:01N 40°44' W 074°01'0 0.9
2018-Jul-07 13:30N 40°45' W 074°01'8 3.3
2018-Jul-07 11:03N 40°37' W 074°04'117.2
2018-Jul-07 11:01N 40°36' W 074°03'3 2.4
2018-Jul-07 09:49N 40°34' W 074°01'3 0.5
2018-Jul-07 03:09N 40°37' W 074°03'3 3.1
2018-Jul-07 02:05N 40°34' W 074°01'224.0
2018-Jul-07 02:00N 40°35' W 074°02'1 0.2
2018-Jul-06 22:28N 40°35' W 074°02'1 0.1
2018-Jul-06 09:49N 40°36' W 074°03'0 0.0
2018-Jul-06 02:21N 40°36' W 074°03'1 0.1
2018-Jul-05 21:22N 40°36' W 074°02'1 2.0
2018-Jul-05 20:43N 40°37' W 074°03'1 0.9
2018-Jul-05 19:46N 40°36' W 074°03'1 0.0
2018-Jul-05 05:35N 40°36' W 074°03'422.9
2018-Jul-05 05:25N 40°33' W 074°00'1 0.8
2018-Jul-05 04:17N 40°34' W 074°01'4 0.6
2018-Jul-04 22:17N 40°37' W 074°04'3 3.4
2018-Jul-04 21:22N 40°34' W 074°02'3 1.1
2018-Jul-04 19:02N 40°37' W 074°03'1 0.9
2018-Jul-04 17:58N 40°36' W 074°03'1 0.4
2018-Jul-04 15:32N 40°37' W 074°03'2 2.1
2018-Jul-04 14:24N 40°35' W 074°02'2 0.7
2018-Jul-04 11:14N 40°37' W 074°03'520.4
2018-Jul-04 11:00N 40°33' W 073°60'811.6
2018-Jul-04 10:18N 40°28' W 073°51'621.0
2018-Jul-04 10:00N 40°32' W 073°58'6 0.9
2018-Jul-04 03:03N 40°36' W 074°03'1 1.0
2018-Jul-04 01:52N 40°35' W 074°02'2 1.8
2018-Jul-04 00:46N 40°37' W 074°04'3 1.4
2018-Jul-03 22:30N 40°34' W 074°02'3 2.9
2018-Jul-03 21:36N 40°37' W 074°03'2 1.0
2018-Jul-03 20:07N 40°35' W 074°02'2 0.2
2018-Jul-03 09:40N 40°33' W 074°01'423.5
2018-Jul-03 09:30N 40°36' W 074°03'0 0.0
2018-Jul-02 20:05N 40°36' W 074°03'3 3.6
2018-Jul-02 19:14N 40°34' W 074°01'  

Dump ship's entire track history